createdAt,value
2017-08-14T00:02:21.045Z,96.20
2017-08-14T00:04:48.567Z,96.20
2017-08-14T00:07:16.116Z,96.20
2017-08-14T00:09:43.651Z,96.30
2017-08-14T00:12:11.178Z,96.30
2017-08-14T00:14:39.110Z,96.30
2017-08-14T00:17:06.664Z,96.40
2017-08-14T00:19:34.172Z,96.60
2017-08-14T00:22:01.718Z,96.70
2017-08-14T00:24:29.227Z,97.00
2017-08-14T00:26:56.751Z,97.10
2017-08-14T00:29:25.073Z,97.20
2017-08-14T00:31:52.579Z,97.20
2017-08-14T00:34:20.095Z,97.30
2017-08-14T00:36:47.624Z,97.30
2017-08-14T00:39:15.145Z,97.30
2017-08-14T00:41:42.770Z,97.40
2017-08-14T00:44:10.619Z,97.40
2017-08-14T00:46:38.128Z,97.40
2017-08-14T00:49:05.632Z,97.40
2017-08-14T00:51:33.183Z,97.40
2017-08-14T00:54:00.706Z,97.40
2017-08-14T00:56:28.212Z,97.50
2017-08-14T00:58:55.743Z,97.50
2017-08-14T01:01:24.034Z,97.50
2017-08-14T01:03:51.554Z,97.40
2017-08-14T01:06:19.097Z,97.50
2017-08-14T01:08:46.618Z,97.40
2017-08-14T01:11:14.209Z,97.30
2017-08-14T01:13:41.743Z,97.30
2017-08-14T01:16:09.312Z,97.20
2017-08-14T01:18:36.822Z,97.20
2017-08-14T01:21:05.133Z,97.50
2017-08-14T01:23:32.706Z,97.10
2017-08-14T01:26:00.227Z,97.10
2017-08-14T01:28:28.518Z,97.20
2017-08-14T01:30:56.020Z,97.20
2017-08-14T01:33:23.527Z,97.30
2017-08-14T01:35:51.054Z,97.30
2017-08-14T01:38:18.651Z,97.40
2017-08-14T01:40:46.235Z,97.40
2017-08-14T01:43:13.784Z,97.30
2017-08-14T01:45:41.302Z,97.40
2017-08-14T01:48:08.835Z,97.40
2017-08-14T01:50:36.339Z,97.50
2017-08-14T01:53:04.646Z,97.60
2017-08-14T01:55:32.198Z,97.50
2017-08-14T01:57:59.721Z,97.60
2017-08-14T02:00:27.992Z,97.70
2017-08-14T02:02:55.533Z,97.70
2017-08-14T02:05:23.049Z,97.80
2017-08-14T02:07:50.582Z,97.90
2017-08-14T02:10:18.897Z,98.00
2017-08-14T02:12:46.398Z,98.00
2017-08-14T02:15:13.903Z,98.10
2017-08-14T02:17:41.435Z,98.20
2017-08-14T02:20:09.740Z,98.70
2017-08-14T02:22:37.262Z,98.70
2017-08-14T02:25:05.574Z,99.00
2017-08-14T02:27:33.097Z,99.00
2017-08-14T02:30:01.383Z,99.30
2017-08-14T02:32:28.916Z,99.20
2017-08-14T02:34:56.429Z,99.30
2017-08-14T02:37:23.989Z,99.40
2017-08-14T02:39:51.519Z,99.30
2017-08-14T02:42:19.105Z,99.30
2017-08-14T02:44:46.607Z,99.30
2017-08-14T02:47:14.140Z,99.30
2017-08-14T02:49:41.643Z,99.30
2017-08-14T02:52:09.149Z,99.40
2017-08-14T02:54:36.786Z,99.40
2017-08-14T02:57:04.301Z,99.40
2017-08-14T02:59:32.585Z,99.50
2017-08-14T03:02:00.925Z,99.60
2017-08-14T03:04:28.434Z,99.60
2017-08-14T03:06:55.953Z,99.70
2017-08-14T03:09:23.498Z,99.70
2017-08-14T03:11:51.018Z,99.70
2017-08-14T03:14:18.523Z,99.80
2017-08-14T03:16:46.122Z,99.80
2017-08-14T03:19:13.660Z,99.90
2017-08-14T03:21:41.936Z,99.90
2017-08-14T03:24:10.246Z,99.90
2017-08-14T03:26:37.770Z,99.90
2017-08-14T03:29:06.047Z,99.80
2017-08-14T03:31:34.365Z,99.90
2017-08-14T03:34:01.932Z,99.90
2017-08-14T03:36:29.435Z,99.90
2017-08-14T03:38:57.050Z,99.90
2017-08-14T03:41:24.573Z,99.90
2017-08-14T03:43:52.843Z,99.90
2017-08-14T03:46:21.163Z,99.90
2017-08-14T03:48:48.671Z,99.90
2017-08-14T03:51:16.961Z,99.90
2017-08-14T03:53:45.274Z,99.90
2017-08-14T03:56:12.779Z,99.90
2017-08-14T03:58:41.104Z,99.90
2017-08-14T04:01:08.649Z,99.90
2017-08-14T04:03:36.152Z,99.90
2017-08-14T04:06:03.674Z,99.90
2017-08-14T04:08:31.198Z,99.90
2017-08-14T04:10:59.515Z,99.90
2017-08-14T04:13:27.035Z,99.90
2017-08-14T04:15:55.331Z,99.90
2017-08-14T04:18:22.909Z,99.90
2017-08-14T04:20:50.411Z,99.90
2017-08-14T04:23:18.031Z,99.90
2017-08-14T04:25:45.561Z,99.90
2017-08-14T04:28:13.077Z,99.90
2017-08-14T04:30:40.607Z,99.90
2017-08-14T04:33:08.115Z,99.90
2017-08-14T04:35:36.400Z,99.90
2017-08-14T04:38:04.696Z,99.90
2017-08-14T04:40:32.218Z,99.90
2017-08-14T04:42:59.723Z,99.90
2017-08-14T04:45:27.269Z,99.90
2017-08-14T04:47:54.775Z,99.90
2017-08-14T04:50:22.293Z,99.90
2017-08-14T04:52:49.842Z,99.90
2017-08-14T04:55:17.353Z,99.20
2017-08-14T04:57:44.866Z,98.80
2017-08-14T05:00:12.418Z,97.10
2017-08-14T05:02:39.938Z,95.90
2017-08-14T05:05:07.470Z,95.40
2017-08-14T05:07:35.014Z,94.40
2017-08-14T05:10:02.516Z,94.60
2017-08-14T05:12:30.015Z,94.70
2017-08-14T05:14:57.578Z,95.90
2017-08-14T05:17:25.149Z,95.00
2017-08-14T05:19:52.674Z,95.30
2017-08-14T05:22:20.963Z,95.70
2017-08-14T05:24:48.464Z,95.70
2017-08-14T05:27:15.968Z,95.90
2017-08-14T05:29:43.504Z,96.10
2017-08-14T05:32:11.007Z,96.40
2017-08-14T05:34:38.526Z,96.50
2017-08-14T05:37:06.838Z,97.20
2017-08-14T05:39:34.358Z,96.80
2017-08-14T05:42:01.861Z,96.50
2017-08-14T05:44:29.391Z,96.00
2017-08-14T05:46:57.702Z,95.40
2017-08-14T05:49:25.216Z,95.40
2017-08-14T05:51:52.773Z,95.90
2017-08-14T05:54:21.042Z,95.50
2017-08-14T05:56:48.559Z,95.40
2017-08-14T05:59:16.112Z,95.30
2017-08-14T06:01:43.612Z,94.70
2017-08-14T06:04:11.121Z,94.30
2017-08-14T06:06:38.690Z,93.50
2017-08-14T06:09:06.210Z,92.70
2017-08-14T06:11:34.485Z,91.20
2017-08-14T06:14:02.789Z,90.50
2017-08-14T06:16:30.287Z,90.50
2017-08-14T06:18:57.789Z,88.70
2017-08-14T06:21:25.311Z,87.30
2017-08-14T06:23:52.803Z,86.10
2017-08-14T06:26:21.060Z,84.60
2017-08-14T06:28:49.343Z,83.20
2017-08-14T06:31:17.603Z,81.50
2017-08-14T06:33:45.102Z,81.40
2017-08-14T06:36:12.619Z,81.50
2017-08-14T06:38:40.115Z,80.70
2017-08-14T06:41:07.607Z,80.90
2017-08-14T06:43:35.250Z,81.90
2017-08-14T06:46:02.807Z,83.50
2017-08-14T06:48:30.303Z,83.90
2017-08-14T06:50:57.841Z,85.00
2017-08-14T06:53:25.349Z,83.50
2017-08-14T06:55:53.612Z,85.80
2017-08-14T06:58:21.935Z,84.30
2017-08-14T07:00:49.495Z,83.60
2017-08-14T07:03:16.983Z,80.70
2017-08-14T07:05:44.522Z,78.80
2017-08-14T07:08:12.043Z,78.00
2017-08-14T07:10:39.547Z,78.50
2017-08-14T07:13:07.068Z,73.40
2017-08-14T07:15:35.348Z,72.80
2017-08-14T07:18:02.857Z,70.50
2017-08-14T07:20:30.384Z,67.20
2017-08-14T07:22:57.884Z,65.50
2017-08-14T07:25:25.498Z,63.00
2017-08-14T07:27:53.028Z,63.00
2017-08-14T07:30:20.615Z,63.30
2017-08-14T07:32:48.113Z,60.90
2017-08-14T07:35:15.646Z,59.10
2017-08-14T07:37:43.146Z,58.10
2017-08-14T07:40:11.403Z,56.20
2017-08-14T07:42:38.942Z,56.10
2017-08-14T07:45:06.435Z,54.50
2017-08-14T07:47:34.743Z,53.10
2017-08-14T07:50:02.285Z,52.40
2017-08-14T07:52:30.643Z,52.00
2017-08-14T07:54:58.155Z,51.30
2017-08-14T07:57:25.675Z,49.20
2017-08-14T07:59:53.953Z,48.80
2017-08-14T08:02:22.365Z,46.90
2017-08-14T08:04:49.908Z,46.90
2017-08-14T08:07:17.404Z,46.50
2017-08-14T08:09:44.904Z,45.30
2017-08-14T08:12:13.200Z,42.80
2017-08-14T08:14:40.706Z,42.80
2017-08-14T08:17:08.222Z,42.40
2017-08-14T08:19:35.744Z,43.20
2017-08-14T08:22:04.012Z,40.10
2017-08-14T08:24:31.531Z,40.10
2017-08-14T08:26:59.065Z,40.00
2017-08-14T08:29:26.582Z,38.80
2017-08-14T08:31:54.097Z,38.80
2017-08-14T08:34:21.619Z,38.90
2017-08-14T08:36:49.894Z,35.80
2017-08-14T08:39:18.210Z,35.30
2017-08-14T08:41:45.754Z,35.20
2017-08-14T08:44:13.279Z,35.60
2017-08-14T08:46:40.791Z,34.30
2017-08-14T08:49:08.333Z,33.80
2017-08-14T08:51:35.900Z,33.50
2017-08-14T08:54:03.426Z,33.10
2017-08-14T08:56:31.724Z,35.40
2017-08-14T08:58:59.224Z,35.40
2017-08-14T09:01:26.715Z,33.70
2017-08-14T09:03:54.242Z,34.50
2017-08-14T09:06:21.744Z,33.60
2017-08-14T09:08:49.240Z,32.40
2017-08-14T09:11:16.776Z,31.30
2017-08-14T09:13:44.276Z,32.20
2017-08-14T09:16:11.767Z,31.20
2017-08-14T09:18:39.289Z,30.90
2017-08-14T09:21:06.783Z,29.90
2017-08-14T09:23:34.275Z,29.40
2017-08-14T09:26:01.804Z,30.90
2017-08-14T09:28:29.333Z,29.70
2017-08-14T09:30:57.627Z,31.40
2017-08-14T09:33:25.915Z,32.70
2017-08-14T09:35:53.438Z,32.60
2017-08-14T09:38:20.940Z,32.10
2017-08-14T09:40:48.472Z,31.30
2017-08-14T09:43:16.731Z,30.10
2017-08-14T09:45:44.252Z,29.70
2017-08-14T09:48:11.793Z,31.50
2017-08-14T09:50:39.371Z,30.00
2017-08-14T09:53:06.863Z,30.30
2017-08-14T09:55:34.384Z,28.50
2017-08-14T09:58:01.894Z,29.30
2017-08-14T10:00:29.410Z,28.70
2017-08-14T10:02:56.960Z,30.00
2017-08-14T10:05:24.473Z,28.30
2017-08-14T10:07:52.739Z,28.00
2017-08-14T10:10:20.291Z,27.60
2017-08-14T10:12:47.822Z,28.30
2017-08-14T10:15:15.320Z,27.80
2017-08-14T10:17:42.929Z,27.80
2017-08-14T10:20:10.427Z,27.90
2017-08-14T10:22:37.949Z,27.90
2017-08-14T10:25:05.494Z,26.60
2017-08-14T10:27:33.010Z,27.10
2017-08-14T10:30:00.522Z,27.00
2017-08-14T10:32:28.049Z,28.60
2017-08-14T10:34:56.312Z,27.50
2017-08-14T10:37:23.815Z,27.40
2017-08-14T10:39:51.354Z,28.20
2017-08-14T10:42:18.869Z,27.40
2017-08-14T10:44:46.369Z,28.00
2017-08-14T10:47:13.910Z,29.30
2017-08-14T10:49:42.223Z,33.40
2017-08-14T10:52:09.781Z,33.40
2017-08-14T10:54:37.317Z,35.70
2017-08-14T10:57:04.829Z,35.50
2017-08-14T10:59:32.342Z,36.90
2017-08-14T11:01:59.915Z,35.90
2017-08-14T11:04:27.426Z,35.40
2017-08-14T11:06:55.033Z,33.40
2017-08-14T11:09:22.574Z,33.90
2017-08-14T11:11:50.078Z,35.80
2017-08-14T11:14:17.576Z,35.00
2017-08-14T11:16:45.882Z,34.60
2017-08-14T11:19:13.443Z,34.60
2017-08-14T11:21:40.940Z,35.20
2017-08-14T11:24:08.464Z,36.00
2017-08-14T11:26:35.973Z,37.20
2017-08-14T11:29:04.265Z,40.20
2017-08-14T11:31:32.563Z,39.70
2017-08-14T11:34:00.073Z,39.60
2017-08-14T11:36:27.600Z,40.00
2017-08-14T11:38:55.124Z,38.90
2017-08-14T11:41:22.639Z,39.80
2017-08-14T11:43:50.198Z,38.20
2017-08-14T11:46:17.749Z,36.40
2017-08-14T11:48:45.257Z,36.00
2017-08-14T11:51:12.747Z,36.90
2017-08-14T11:53:40.281Z,36.10
2017-08-14T11:56:07.780Z,36.90
2017-08-14T11:58:35.271Z,35.20
2017-08-14T12:01:03.586Z,38.30
2017-08-14T12:03:31.108Z,38.30
2017-08-14T12:05:59.368Z,41.00
2017-08-14T12:08:26.896Z,40.90
2017-08-14T12:10:54.407Z,41.10
2017-08-14T12:13:22.672Z,36.60
2017-08-14T12:15:50.977Z,32.90
2017-08-14T12:18:18.468Z,32.90
2017-08-14T12:20:45.990Z,28.70
2017-08-14T12:23:13.529Z,24.40
2017-08-14T12:25:41.792Z,22.60
2017-08-14T12:28:09.315Z,22.50
2017-08-14T12:30:36.854Z,22.20
2017-08-14T12:33:04.351Z,24.60
2017-08-14T12:35:31.848Z,24.40
2017-08-14T12:37:59.436Z,25.70
2017-08-14T12:40:26.940Z,26.70
2017-08-14T12:42:54.450Z,26.60
2017-08-14T12:45:21.994Z,28.30
2017-08-14T12:47:49.496Z,30.60
2017-08-14T12:50:17.009Z,34.10
2017-08-14T12:52:44.559Z,36.10
2017-08-14T12:55:12.055Z,37.80
2017-08-14T12:57:39.552Z,37.70
2017-08-14T13:00:07.848Z,35.40
2017-08-14T13:02:35.366Z,34.80
2017-08-14T13:05:02.886Z,37.30
2017-08-14T13:07:30.412Z,38.60
2017-08-14T13:09:58.675Z,40.60
2017-08-14T13:12:26.190Z,40.60
2017-08-14T13:14:53.742Z,38.40
2017-08-14T13:17:21.259Z,36.10
2017-08-14T13:19:49.577Z,37.10
2017-08-14T13:22:17.100Z,37.10
2017-08-14T13:24:45.389Z,37.30
2017-08-14T13:27:12.888Z,37.20
2017-08-14T13:29:40.423Z,35.50
2017-08-14T13:32:07.942Z,35.20
2017-08-14T13:34:36.203Z,38.10
2017-08-14T13:37:03.728Z,37.60
2017-08-14T13:39:31.268Z,39.60
2017-08-14T13:41:58.771Z,41.00
2017-08-14T13:44:26.314Z,41.60
2017-08-14T13:46:53.855Z,41.90
2017-08-14T13:49:21.370Z,42.20
2017-08-14T13:51:49.659Z,42.60
2017-08-14T13:54:17.916Z,44.30
2017-08-14T13:56:45.527Z,44.30
2017-08-14T13:59:13.065Z,43.30
2017-08-14T14:01:40.573Z,42.30
2017-08-14T14:04:08.101Z,40.20
2017-08-14T14:06:35.656Z,35.80
2017-08-14T14:09:03.166Z,36.80
2017-08-14T14:11:30.682Z,36.50
2017-08-14T14:13:58.223Z,38.60
2017-08-14T14:16:25.720Z,39.60
2017-08-14T14:18:53.229Z,41.70
2017-08-14T14:21:20.765Z,42.50
2017-08-14T14:23:49.041Z,42.00
2017-08-14T14:26:17.300Z,41.50
2017-08-14T14:28:44.821Z,41.50
2017-08-14T14:31:12.329Z,40.40
2017-08-14T14:33:39.837Z,39.30
2017-08-14T14:36:07.375Z,41.70
2017-08-14T14:38:34.880Z,41.80
2017-08-14T14:41:02.372Z,42.30
2017-08-14T14:43:30.683Z,34.30
2017-08-14T14:45:59.165Z,34.30
2017-08-14T14:48:26.725Z,33.10
2017-08-14T14:50:54.282Z,32.90
2017-08-14T14:53:21.789Z,32.10
2017-08-14T14:55:49.298Z,30.90
2017-08-14T14:58:16.839Z,29.80
2017-08-14T15:00:44.349Z,28.70
2017-08-14T15:03:11.857Z,27.40
2017-08-14T15:05:39.383Z,27.80
2017-08-14T15:08:06.883Z,30.60
2017-08-14T15:10:34.397Z,34.50
2017-08-14T15:13:01.937Z,38.10
2017-08-14T15:15:29.466Z,40.90
2017-08-14T15:17:56.978Z,42.00
2017-08-14T15:20:24.514Z,42.40
2017-08-14T15:22:52.029Z,43.30
2017-08-14T15:25:19.541Z,44.60
2017-08-14T15:27:47.064Z,44.40
2017-08-14T15:30:14.587Z,43.90
2017-08-14T15:32:42.861Z,44.20
2017-08-14T15:35:11.162Z,44.00
2017-08-14T15:37:38.729Z,44.00
2017-08-14T15:40:06.223Z,44.60
2017-08-14T15:42:33.758Z,44.80
2017-08-14T15:45:01.264Z,45.00
2017-08-14T15:47:29.527Z,45.80
2017-08-14T15:49:57.137Z,45.80
2017-08-14T15:52:24.631Z,45.20
2017-08-14T15:54:52.147Z,45.00
2017-08-14T15:57:19.676Z,45.00
2017-08-14T15:59:47.932Z,45.70
2017-08-14T16:02:15.427Z,45.60
2017-08-14T16:04:42.943Z,47.00
2017-08-14T16:07:10.453Z,47.40
2017-08-14T16:09:37.951Z,47.50
2017-08-14T16:12:05.467Z,47.70
2017-08-14T16:14:33.038Z,46.70
2017-08-14T16:17:00.546Z,47.30
2017-08-14T16:19:45.878Z,47.40
2017-08-14T16:22:13.395Z,48.00
2017-08-14T16:24:41.674Z,48.70
2017-08-14T16:27:09.960Z,47.60
2017-08-14T16:29:37.490Z,47.60
2017-08-14T16:32:04.983Z,47.40
2017-08-14T16:34:32.522Z,48.40
2017-08-14T16:37:00.822Z,48.60
2017-08-14T16:39:28.312Z,48.60
2017-08-14T16:41:55.853Z,48.80
2017-08-14T16:44:23.367Z,49.00
2017-08-14T16:46:51.654Z,49.00
2017-08-14T16:49:20.063Z,49.60
2017-08-14T16:51:47.559Z,49.60
2017-08-14T16:54:15.051Z,49.60
2017-08-14T16:56:42.572Z,50.20
2017-08-14T16:59:10.198Z,51.00
2017-08-14T17:01:37.696Z,51.50
2017-08-14T17:04:05.234Z,51.50
2017-08-14T17:06:32.771Z,51.30
2017-08-14T17:09:00.282Z,52.10
2017-08-14T17:11:28.575Z,52.80
2017-08-14T17:13:56.840Z,52.60
2017-08-14T17:16:25.099Z,52.60
2017-08-14T17:18:52.623Z,52.60
2017-08-14T17:21:20.120Z,52.90
2017-08-14T17:23:47.620Z,52.90
2017-08-14T17:26:15.153Z,53.00
2017-08-14T17:28:43.430Z,54.60
2017-08-14T17:31:11.687Z,53.80
2017-08-14T17:33:39.300Z,53.80
2017-08-14T17:36:06.796Z,53.80
2017-08-14T17:38:34.315Z,53.80
2017-08-14T17:41:01.877Z,55.00
2017-08-14T17:43:29.390Z,55.10
2017-08-14T17:45:57.657Z,55.30
2017-08-14T17:48:25.186Z,55.00
2017-08-14T17:50:52.685Z,55.50
2017-08-14T17:53:20.968Z,55.50
2017-08-14T17:55:49.251Z,55.50
2017-08-14T17:58:17.553Z,55.90
2017-08-14T18:00:45.046Z,55.90
2017-08-14T18:03:12.558Z,56.40
2017-08-14T18:05:40.084Z,56.90
2017-08-14T18:08:08.373Z,57.50
2017-08-14T18:10:36.654Z,57.90
2017-08-14T18:13:04.962Z,58.50
2017-08-14T18:15:32.481Z,58.40
2017-08-14T18:18:00.792Z,58.80
2017-08-14T18:20:28.299Z,58.80
2017-08-14T18:22:55.806Z,59.50
2017-08-14T18:25:23.324Z,60.00
2017-08-14T18:27:51.598Z,60.90
2017-08-14T18:30:19.206Z,60.90
2017-08-14T18:32:46.750Z,61.20
2017-08-14T18:35:14.328Z,61.80
2017-08-14T18:37:41.838Z,62.70
2017-08-14T18:40:10.124Z,63.50
2017-08-14T18:42:38.392Z,64.10
2017-08-14T18:45:06.669Z,64.40
2017-08-14T18:47:34.966Z,65.70
2017-08-14T18:50:02.546Z,65.60
2017-08-14T18:52:30.091Z,66.40
2017-08-14T18:54:57.596Z,67.10
2017-08-14T18:57:25.114Z,68.10
2017-08-14T18:59:52.638Z,68.40
2017-08-14T19:02:20.908Z,70.40
2017-08-14T19:04:49.229Z,70.60
2017-08-14T19:07:16.773Z,69.90
2017-08-14T19:09:45.672Z,71.70
2017-08-14T19:12:12.619Z,71.60
2017-08-14T19:14:40.119Z,71.80
2017-08-14T19:17:07.648Z,71.60
2017-08-14T19:19:35.163Z,72.40
2017-08-14T19:22:03.441Z,73.30
2017-08-14T19:24:31.741Z,73.50
2017-08-14T19:26:59.312Z,73.50
2017-08-14T19:29:26.836Z,73.80
2017-08-14T19:31:55.100Z,74.20
2017-08-14T19:34:23.386Z,75.20
2017-08-14T19:36:51.659Z,74.30
2017-08-14T19:39:19.924Z,75.00
2017-08-14T19:41:47.535Z,74.90
2017-08-14T19:44:15.032Z,74.70
2017-08-14T19:46:42.651Z,73.80
2017-08-14T19:49:10.168Z,76.90
2017-08-14T19:51:38.446Z,77.10
2017-08-14T19:54:06.762Z,77.10
2017-08-14T19:56:34.323Z,77.00
2017-08-14T19:59:01.816Z,77.30
2017-08-14T20:01:29.337Z,76.30
2017-08-14T20:03:56.851Z,78.20
2017-08-14T20:06:24.349Z,78.10
2017-08-14T20:08:51.839Z,78.30
2017-08-14T20:11:19.472Z,78.50
2017-08-14T20:13:46.974Z,78.30
2017-08-14T20:16:14.470Z,79.20
2017-08-14T20:18:42.010Z,79.80
2017-08-14T20:21:10.290Z,79.90
2017-08-14T20:23:38.570Z,80.80
2017-08-14T20:26:06.876Z,80.60
2017-08-14T20:28:34.376Z,80.60
2017-08-14T20:31:01.919Z,81.40
2017-08-14T20:33:29.427Z,81.90
2017-08-14T20:35:56.924Z,81.50
2017-08-14T20:38:24.451Z,81.90
2017-08-14T20:40:51.958Z,83.00
2017-08-14T20:43:19.455Z,82.50
2017-08-14T20:45:46.991Z,82.80
2017-08-14T20:48:14.528Z,83.20
2017-08-14T20:50:42.066Z,83.50
2017-08-14T20:53:09.596Z,83.30
2017-08-14T20:55:37.112Z,82.70
2017-08-14T20:58:04.655Z,82.60
2017-08-14T21:00:32.221Z,82.80
2017-08-14T21:02:59.735Z,82.30
2017-08-14T21:05:27.340Z,82.30
2017-08-14T21:07:54.848Z,82.50
2017-08-14T21:10:22.391Z,82.20
2017-08-14T21:12:49.917Z,82.80
2017-08-14T21:15:17.434Z,82.60
2017-08-14T21:17:45.855Z,82.70
2017-08-14T21:20:13.385Z,82.60
2017-08-14T21:22:41.658Z,82.80
2017-08-14T21:25:09.963Z,82.50
2017-08-14T21:27:37.460Z,82.50
2017-08-14T21:30:04.972Z,82.00
2017-08-14T21:32:32.515Z,81.70
2017-08-14T21:35:00.011Z,81.80
2017-08-14T21:37:27.508Z,82.30
2017-08-14T21:39:55.057Z,82.30
2017-08-14T21:42:22.564Z,82.90
2017-08-14T21:44:50.091Z,83.10
2017-08-14T21:47:18.403Z,83.20
2017-08-14T21:49:45.913Z,83.10
2017-08-14T21:52:13.407Z,82.80
2017-08-14T21:54:40.940Z,83.00
2017-08-14T21:57:10.080Z,82.80
2017-08-14T21:59:37.593Z,82.80
2017-08-14T22:02:05.913Z,82.90
2017-08-14T22:04:33.426Z,82.90
2017-08-14T22:07:01.687Z,82.50
2017-08-14T22:09:29.229Z,82.50
2017-08-14T22:11:56.737Z,82.00
2017-08-14T22:14:25.014Z,82.00
2017-08-14T22:16:52.531Z,82.00
2017-08-14T22:19:20.037Z,82.10
2017-08-14T22:21:47.546Z,81.90
2017-08-14T22:24:15.063Z,82.20
2017-08-14T22:26:42.559Z,82.10
2017-08-14T22:29:10.051Z,81.70
2017-08-14T22:31:38.350Z,81.50
2017-08-14T22:34:05.847Z,81.50
2017-08-14T22:36:33.357Z,79.40
2017-08-14T22:39:00.898Z,78.40
2017-08-14T22:41:29.174Z,77.10
2017-08-14T22:43:57.435Z,76.20
2017-08-14T22:46:24.955Z,76.10
2017-08-14T22:48:52.515Z,75.60
2017-08-14T22:51:20.041Z,75.40
2017-08-14T22:53:47.559Z,75.70
2017-08-14T22:56:15.075Z,75.30
2017-08-14T22:58:42.573Z,74.70
2017-08-14T23:01:10.086Z,74.90
2017-08-14T23:03:37.659Z,74.70
2017-08-14T23:06:05.155Z,74.50
2017-08-14T23:08:32.649Z,74.40
2017-08-14T23:11:00.182Z,74.10
2017-08-14T23:13:27.693Z,74.10
2017-08-14T23:15:55.201Z,74.10
2017-08-14T23:18:23.492Z,74.70
2017-08-14T23:20:51.800Z,73.80
2017-08-14T23:23:19.358Z,73.70
2017-08-14T23:25:46.889Z,73.70
2017-08-14T23:28:15.164Z,73.60
2017-08-14T23:30:42.677Z,73.40
2017-08-14T23:33:10.312Z,73.60
2017-08-14T23:35:37.821Z,74.00
2017-08-14T23:38:05.330Z,73.40
2017-08-14T23:40:32.852Z,73.10
2017-08-14T23:43:01.113Z,73.30
2017-08-14T23:45:28.602Z,73.10
2017-08-14T23:47:56.184Z,73.20
2017-08-14T23:50:23.680Z,73.30
2017-08-14T23:52:51.300Z,73.50
2017-08-14T23:55:18.838Z,73.60
2017-08-14T23:57:46.418Z,73.50
